sensor_id;sensor_type;location;lat;lon;timestamp;P1;durP1;ratioP1;P2;durP2;ratioP2
79122;SDS011;68526;44.600;26.032;2023-11-21T00:00:01;40.80;;;26.40;;
79122;SDS011;68526;44.600;26.032;2023-11-21T00:00:20;40.30;;;26.65;;
79122;SDS011;68526;44.600;26.032;2023-11-21T00:00:35;40.38;;;27.45;;
79122;SDS011;68526;44.600;26.032;2023-11-21T00:00:52;41.55;;;27.38;;
79122;SDS011;68526;44.600;26.032;2023-11-21T00:01:08;41.30;;;27.05;;
79122;SDS011;68526;44.600;26.032;2023-11-21T00:01:24;40.47;;;27.75;;
79122;SDS011;68526;44.600;26.032;2023-11-21T00:01:40;41.10;;;28.20;;
79122;SDS011;68526;44.600;26.032;2023-11-21T00:01:57;41.83;;;27.52;;
79122;SDS011;68526;44.600;26.032;2023-11-21T00:02:13;41.80;;;27.98;;
79122;SDS011;68526;44.600;26.032;2023-11-21T00:02:29;40.03;;;27.48;;
79122;SDS011;68526;44.600;26.032;2023-11-21T00:02:46;39.35;;;26.95;;
79122;SDS011;68526;44.600;26.032;2023-11-21T00:03:02;44.17;;;27.60;;
79122;SDS011;68526;44.600;26.032;2023-11-21T00:03:19;43.15;;;27.13;;
79122;SDS011;68526;44.600;26.032;2023-11-21T00:03:35;39.70;;;26.27;;
79122;SDS011;68526;44.600;26.032;2023-11-21T00:03:51;40.20;;;26.48;;
79122;SDS011;68526;44.600;26.032;2023-11-21T00:04:09;38.10;;;26.38;;
79122;SDS011;68526;44.600;26.032;2023-11-21T00:04:26;38.20;;;26.55;;
79122;SDS011;68526;44.600;26.032;2023-11-21T00:04:43;41.60;;;27.15;;
79122;SDS011;68526;44.600;26.032;2023-11-21T00:04:59;42.40;;;27.27;;
79122;SDS011;68526;44.600;26.032;2023-11-21T00:05:15;40.15;;;27.27;;
79122;SDS011;68526;44.600;26.032;2023-11-21T00:05:31;40.50;;;27.05;;
79122;SDS011;68526;44.600;26.032;2023-11-21T00:05:46;41.75;;;27.42;;
79122;SDS011;68526;44.600;26.032;2023-11-21T00:06:03;41.60;;;27.83;;
79122;SDS011;68526;44.600;26.032;2023-11-21T00:06:23;42.05;;;27.88;;
79122;SDS011;68526;44.600;26.032;2023-11-21T00:06:39;43.08;;;28.88;;
79122;SDS011;68526;44.600;26.032;2023-11-21T00:06:56;41.50;;;28.20;;
79122;SDS011;68526;44.600;26.032;2023-11-21T00:07:11;42.53;;;28.03;;
79122;SDS011;68526;44.600;26.032;2023-11-21T00:07:27;44.53;;;28.73;;
79122;SDS011;68526;44.600;26.032;2023-11-21T00:07:43;41.60;;;27.65;;
79122;SDS011;68526;44.600;26.032;2023-11-21T00:07:59;42.20;;;27.15;;
79122;SDS011;68526;44.600;26.032;2023-11-21T00:08:15;43.27;;;28.03;;
79122;SDS011;68526;44.600;26.032;2023-11-21T00:08:32;41.00;;;28.65;;
79122;SDS011;68526;44.600;26.032;2023-11-21T00:08:47;41.55;;;29.20;;
79122;SDS011;68526;44.600;26.032;2023-11-21T00:09:03;44.25;;;29.75;;
79122;SDS011;68526;44.600;26.032;2023-11-21T00:09:20;45.35;;;29.73;;
79122;SDS011;68526;44.600;26.032;2023-11-21T00:09:36;44.35;;;29.20;;
79122;SDS011;68526;44.600;26.032;2023-11-21T00:09:52;47.00;;;29.02;;
79122;SDS011;68526;44.600;26.032;2023-11-21T00:10:11;50.95;;;29.38;;
79122;SDS011;68526;44.600;26.032;2023-11-21T00:10:31;45.38;;;28.75;;
79122;SDS011;68526;44.600;26.032;2023-11-21T00:10:46;44.10;;;29.43;;
79122;SDS011;68526;44.600;26.032;2023-11-21T00:11:03;44.53;;;29.73;;
79122;SDS011;68526;44.600;26.032;2023-11-21T00:11:20;42.55;;;28.75;;
79122;SDS011;68526;44.600;26.032;2023-11-21T00:11:36;42.72;;;28.65;;
79122;SDS011;68526;44.600;26.032;2023-11-21T00:11:53;42.47;;;28.45;;
79122;SDS011;68526;44.600;26.032;2023-11-21T00:12:08;41.50;;;28.13;;
79122;SDS011;68526;44.600;26.032;2023-11-21T00:12:26;42.60;;;28.58;;
79122;SDS011;68526;44.600;26.032;2023-11-21T00:12:42;45.05;;;29.13;;
79122;SDS011;68526;44.600;26.032;2023-11-21T00:12:58;47.22;;;29.33;;
79122;SDS011;68526;44.600;26.032;2023-11-21T00:13:14;46.28;;;29.25;;
79122;SDS011;68526;44.600;26.032;2023-11-21T00:13:30;44.73;;;29.23;;
79122;SDS011;68526;44.600;26.032;2023-11-21T00:13:46;42.95;;;28.60;;
79122;SDS011;68526;44.600;26.032;2023-11-21T00:14:03;43.95;;;29.23;;
79122;SDS011;68526;44.600;26.032;2023-11-21T00:14:19;43.33;;;30.00;;
79122;SDS011;68526;44.600;26.032;2023-11-21T00:14:35;43.50;;;29.60;;
79122;SDS011;68526;44.600;26.032;2023-11-21T00:14:51;42.28;;;29.33;;
79122;SDS011;68526;44.600;26.032;2023-11-21T00:15:07;42.28;;;29.80;;
79122;SDS011;68526;44.600;26.032;2023-11-21T00:15:27;46.33;;;30.05;;
79122;SDS011;68526;44.600;26.032;2023-11-21T00:15:43;45.30;;;28.90;;
79122;SDS011;68526;44.600;26.032;2023-11-21T00:16:00;42.38;;;27.75;;
79122;SDS011;68526;44.600;26.032;2023-11-21T00:16:16;43.45;;;27.73;;
79122;SDS011;68526;44.600;26.032;2023-11-21T00:16:32;44.03;;;28.10;;
79122;SDS011;68526;44.600;26.032;2023-11-21T00:16:48;43.17;;;28.63;;
79122;SDS011;68526;44.600;26.032;2023-11-21T00:17:03;42.47;;;28.75;;
79122;SDS011;68526;44.600;26.032;2023-11-21T00:17:20;41.45;;;28.98;;
79122;SDS011;68526;44.600;26.032;2023-11-21T00:17:36;40.77;;;28.67;;
79122;SDS011;68526;44.600;26.032;2023-11-21T00:17:52;40.90;;;28.60;;
79122;SDS011;68526;44.600;26.032;2023-11-21T00:18:09;45.03;;;29.90;;
79122;SDS011;68526;44.600;26.032;2023-11-21T00:18:25;45.90;;;29.45;;
79122;SDS011;68526;44.600;26.032;2023-11-21T00:18:41;43.22;;;28.45;;
79122;SDS011;68526;44.600;26.032;2023-11-21T00:18:57;43.65;;;29.30;;
79122;SDS011;68526;44.600;26.032;2023-11-21T00:19:13;44.58;;;30.00;;
79122;SDS011;68526;44.600;26.032;2023-11-21T00:19:29;43.47;;;28.83;;
79122;SDS011;68526;44.600;26.032;2023-11-21T00:19:45;43.53;;;28.55;;
79122;SDS011;68526;44.600;26.032;2023-11-21T00:20:01;44.35;;;29.00;;
79122;SDS011;68526;44.600;26.032;2023-11-21T00:20:21;43.50;;;28.52;;
79122;SDS011;68526;44.600;26.032;2023-11-21T00:20:37;45.72;;;29.42;;
79122;SDS011;68526;44.600;26.032;2023-11-21T00:20:53;44.17;;;28.73;;
79122;SDS011;68526;44.600;26.032;2023-11-21T00:21:08;43.92;;;28.40;;
79122;SDS011;68526;44.600;26.032;2023-11-21T00:21:24;44.65;;;29.25;;
79122;SDS011;68526;44.600;26.032;2023-11-21T00:21:40;40.95;;;29.17;;
79122;SDS011;68526;44.600;26.032;2023-11-21T00:21:59;40.03;;;28.67;;
79122;SDS011;68526;44.600;26.032;2023-11-21T00:22:14;41.58;;;28.83;;
79122;SDS011;68526;44.600;26.032;2023-11-21T00:22:32;45.05;;;29.48;;
79122;SDS011;68526;44.600;26.032;2023-11-21T00:22:48;45.30;;;28.75;;
79122;SDS011;68526;44.600;26.032;2023-11-21T00:23:04;43.78;;;29.17;;
79122;SDS011;68526;44.600;26.032;2023-11-21T00:23:19;43.80;;;29.90;;
79122;SDS011;68526;44.600;26.032;2023-11-21T00:23:35;43.53;;;29.13;;
79122;SDS011;68526;44.600;26.032;2023-11-21T00:23:51;43.88;;;29.50;;
79122;SDS011;68526;44.600;26.032;2023-11-21T00:24:07;43.10;;;29.15;;
79122;SDS011;68526;44.600;26.032;2023-11-21T00:24:24;42.67;;;28.73;;
79122;SDS011;68526;44.600;26.032;2023-11-21T00:24:41;43.22;;;28.73;;
79122;SDS011;68526;44.600;26.032;2023-11-21T00:24:56;43.03;;;28.23;;
79122;SDS011;68526;44.600;26.032;2023-11-21T00:25:12;43.90;;;29.08;;
79122;SDS011;68526;44.600;26.032;2023-11-21T00:25:30;44.85;;;29.17;;
79122;SDS011;68526;44.600;26.032;2023-11-21T00:25:46;44.10;;;28.55;;
79122;SDS011;68526;44.600;26.032;2023-11-21T00:26:02;43.53;;;29.35;;
79122;SDS011;68526;44.600;26.032;2023-11-21T00:26:19;43.28;;;28.50;;
79122;SDS011;68526;44.600;26.032;2023-11-21T00:26:36;41.53;;;27.17;;
79122;SDS011;68526;44.600;26.032;2023-11-21T00:26:51;42.08;;;27.98;;
79122;SDS011;68526;44.600;26.032;2023-11-21T00:27:08;43.40;;;28.85;;
79122;SDS011;68526;44.600;26.032;2023-11-21T00:27:23;42.35;;;29.08;;
79122;SDS011;68526;44.600;26.032;2023-11-21T00:27:39;44.35;;;29.33;;
79122;SDS011;68526;44.600;26.032;2023-11-21T00:27:55;46.67;;;29.55;;
79122;SDS011;68526;44.600;26.032;2023-11-21T00:28:11;44.23;;;29.47;;
79122;SDS011;68526;44.600;26.032;2023-11-21T00:28:27;42.47;;;29.30;;
79122;SDS011;68526;44.600;26.032;2023-11-21T00:28:45;41.80;;;28.38;;
79122;SDS011;68526;44.600;26.032;2023-11-21T00:29:01;41.75;;;28.15;;
79122;SDS011;68526;44.600;26.032;2023-11-21T00:29:16;43.92;;;29.15;;
79122;SDS011;68526;44.600;26.032;2023-11-21T00:29:33;45.28;;;28.90;;
79122;SDS011;68526;44.600;26.032;2023-11-21T00:29:49;44.22;;;28.17;;
79122;SDS011;68526;44.600;26.032;2023-11-21T00:30:05;45.63;;;28.83;;
79122;SDS011;68526;44.600;26.032;2023-11-21T00:30:22;45.15;;;29.17;;
79122;SDS011;68526;44.600;26.032;2023-11-21T00:30:39;44.47;;;30.23;;
79122;SDS011;68526;44.600;26.032;2023-11-21T00:30:56;44.55;;;30.25;;
79122;SDS011;68526;44.600;26.032;2023-11-21T00:31:12;44.85;;;29.63;;
79122;SDS011;68526;44.600;26.032;2023-11-21T00:31:28;42.67;;;29.65;;
79122;SDS011;68526;44.600;26.032;2023-11-21T00:31:45;44.05;;;28.92;;
79122;SDS011;68526;44.600;26.032;2023-11-21T00:32:01;46.60;;;29.73;;
79122;SDS011;68526;44.600;26.032;2023-11-21T00:32:18;45.42;;;30.20;;
79122;SDS011;68526;44.600;26.032;2023-11-21T00:32:34;46.05;;;30.33;;
79122;SDS011;68526;44.600;26.032;2023-11-21T00:32:51;45.15;;;29.80;;
79122;SDS011;68526;44.600;26.032;2023-11-21T00:33:08;48.05;;;29.63;;
79122;SDS011;68526;44.600;26.032;2023-11-21T00:33:24;48.42;;;29.35;;
79122;SDS011;68526;44.600;26.032;2023-11-21T00:33:40;46.47;;;29.65;;
79122;SDS011;68526;44.600;26.032;2023-11-21T00:33:56;47.92;;;30.10;;
79122;SDS011;68526;44.600;26.032;2023-11-21T00:34:12;46.00;;;29.73;;
79122;SDS011;68526;44.600;26.032;2023-11-21T00:34:28;46.55;;;30.55;;
79122;SDS011;68526;44.600;26.032;2023-11-21T00:34:44;48.05;;;30.50;;
79122;SDS011;68526;44.600;26.032;2023-11-21T00:35:00;44.58;;;29.83;;
79122;SDS011;68526;44.600;26.032;2023-11-21T00:35:17;45.78;;;30.05;;
79122;SDS011;68526;44.600;26.032;2023-11-21T00:35:33;48.03;;;30.25;;
79122;SDS011;68526;44.600;26.032;2023-11-21T00:35:49;46.00;;;30.23;;
79122;SDS011;68526;44.600;26.032;2023-11-21T00:36:05;44.92;;;30.38;;
79122;SDS011;68526;44.600;26.032;2023-11-21T00:36:24;44.58;;;30.10;;
79122;SDS011;68526;44.600;26.032;2023-11-21T00:36:41;46.30;;;29.55;;
79122;SDS011;68526;44.600;26.032;2023-11-21T00:36:57;45.97;;;29.30;;
79122;SDS011;68526;44.600;26.032;2023-11-21T00:37:12;44.55;;;29.02;;
79122;SDS011;68526;44.600;26.032;2023-11-21T00:37:30;46.10;;;29.70;;
79122;SDS011;68526;44.600;26.032;2023-11-21T00:37:47;46.08;;;30.13;;
79122;SDS011;68526;44.600;26.032;2023-11-21T00:38:04;45.15;;;30.13;;
79122;SDS011;68526;44.600;26.032;2023-11-21T00:38:20;46.13;;;30.17;;
79122;SDS011;68526;44.600;26.032;2023-11-21T00:38:36;45.53;;;29.75;;
79122;SDS011;68526;44.600;26.032;2023-11-21T00:38:55;44.75;;;29.75;;
79122;SDS011;68526;44.600;26.032;2023-11-21T00:39:11;45.03;;;29.80;;
79122;SDS011;68526;44.600;26.032;2023-11-21T00:39:28;42.42;;;29.02;;
79122;SDS011;68526;44.600;26.032;2023-11-21T00:39:44;43.63;;;29.47;;
79122;SDS011;68526;44.600;26.032;2023-11-21T00:39:59;45.25;;;30.38;;
79122;SDS011;68526;44.600;26.032;2023-11-21T00:40:18;45.35;;;29.48;;
79122;SDS011;68526;44.600;26.032;2023-11-21T00:40:36;46.55;;;30.05;;
79122;SDS011;68526;44.600;26.032;2023-11-21T00:40:53;44.33;;;29.98;;
79122;SDS011;68526;44.600;26.032;2023-11-21T00:41:11;43.92;;;29.73;;
79122;SDS011;68526;44.600;26.032;2023-11-21T00:41:27;43.13;;;29.47;;
79122;SDS011;68526;44.600;26.032;2023-11-21T00:41:43;42.45;;;28.30;;
79122;SDS011;68526;44.600;26.032;2023-11-21T00:42:00;42.00;;;28.70;;
79122;SDS011;68526;44.600;26.032;2023-11-21T00:42:16;40.60;;;28.48;;
79122;SDS011;68526;44.600;26.032;2023-11-21T00:42:32;42.90;;;28.50;;
79122;SDS011;68526;44.600;26.032;2023-11-21T00:42:49;45.00;;;29.45;;
79122;SDS011;68526;44.600;26.032;2023-11-21T00:43:05;45.42;;;30.10;;
79122;SDS011;68526;44.600;26.032;2023-11-21T00:43:21;47.73;;;30.97;;
79122;SDS011;68526;44.600;26.032;2023-11-21T00:43:37;47.08;;;30.17;;
79122;SDS011;68526;44.600;26.032;2023-11-21T00:43:53;44.42;;;29.15;;
79122;SDS011;68526;44.600;26.032;2023-11-21T00:44:09;44.17;;;29.33;;
79122;SDS011;68526;44.600;26.032;2023-11-21T00:44:25;45.17;;;29.88;;
79122;SDS011;68526;44.600;26.032;2023-11-21T00:44:41;45.00;;;30.13;;
79122;SDS011;68526;44.600;26.032;2023-11-21T00:44:58;43.78;;;29.77;;
79122;SDS011;68526;44.600;26.032;2023-11-21T00:45:14;45.20;;;29.87;;
79122;SDS011;68526;44.600;26.032;2023-11-21T00:45:30;45.22;;;30.05;;
79122;SDS011;68526;44.600;26.032;2023-11-21T00:45:47;44.03;;;29.05;;
79122;SDS011;68526;44.600;26.032;2023-11-21T00:46:04;45.17;;;29.27;;
79122;SDS011;68526;44.600;26.032;2023-11-21T00:46:20;46.13;;;30.33;;
79122;SDS011;68526;44.600;26.032;2023-11-21T00:46:36;45.90;;;30.23;;
79122;SDS011;68526;44.600;26.032;2023-11-21T00:46:53;44.50;;;29.92;;
79122;SDS011;68526;44.600;26.032;2023-11-21T00:47:09;43.22;;;29.52;;
79122;SDS011;68526;44.600;26.032;2023-11-21T00:47:25;43.73;;;29.53;;
79122;SDS011;68526;44.600;26.032;2023-11-21T00:47:41;44.88;;;29.55;;
79122;SDS011;68526;44.600;26.032;2023-11-21T00:47:57;45.83;;;30.27;;
79122;SDS011;68526;44.600;26.032;2023-11-21T00:48:13;44.50;;;30.45;;
79122;SDS011;68526;44.600;26.032;2023-11-21T00:48:29;44.30;;;29.95;;
79122;SDS011;68526;44.600;26.032;2023-11-21T00:48:45;45.03;;;28.75;;
79122;SDS011;68526;44.600;26.032;2023-11-21T00:49:01;46.63;;;29.45;;
79122;SDS011;68526;44.600;26.032;2023-11-21T00:49:19;44.58;;;28.85;;
79122;SDS011;68526;44.600;26.032;2023-11-21T00:49:35;42.58;;;28.13;;
79122;SDS011;68526;44.600;26.032;2023-11-21T00:49:51;42.58;;;28.20;;
79122;SDS011;68526;44.600;26.032;2023-11-21T00:50:08;44.20;;;28.98;;
79122;SDS011;68526;44.600;26.032;2023-11-21T00:50:24;43.83;;;29.42;;
79122;SDS011;68526;44.600;26.032;2023-11-21T00:50:40;41.85;;;29.05;;
79122;SDS011;68526;44.600;26.032;2023-11-21T00:50:57;45.20;;;29.30;;
79122;SDS011;68526;44.600;26.032;2023-11-21T00:51:13;44.97;;;28.70;;
79122;SDS011;68526;44.600;26.032;2023-11-21T00:51:29;43.38;;;27.92;;
79122;SDS011;68526;44.600;26.032;2023-11-21T00:51:44;43.03;;;27.77;;
79122;SDS011;68526;44.600;26.032;2023-11-21T00:52:00;42.95;;;28.88;;
79122;SDS011;68526;44.600;26.032;2023-11-21T00:52:16;42.05;;;29.13;;
79122;SDS011;68526;44.600;26.032;2023-11-21T00:52:32;39.60;;;28.27;;
79122;SDS011;68526;44.600;26.032;2023-11-21T00:52:49;40.97;;;28.70;;
79122;SDS011;68526;44.600;26.032;2023-11-21T00:53:06;42.50;;;29.33;;
79122;SDS011;68526;44.600;26.032;2023-11-21T00:53:22;41.92;;;28.65;;
79122;SDS011;68526;44.600;26.032;2023-11-21T00:53:38;41.65;;;28.02;;
79122;SDS011;68526;44.600;26.032;2023-11-21T00:53:54;42.20;;;27.40;;
79122;SDS011;68526;44.600;26.032;2023-11-21T00:54:10;42.45;;;27.77;;
79122;SDS011;68526;44.600;26.032;2023-11-21T00:54:26;42.28;;;28.23;;
79122;SDS011;68526;44.600;26.032;2023-11-21T00:54:44;43.92;;;28.95;;
79122;SDS011;68526;44.600;26.032;2023-11-21T00:55:00;44.72;;;29.30;;
79122;SDS011;68526;44.600;26.032;2023-11-21T00:55:16;45.05;;;29.95;;
79122;SDS011;68526;44.600;26.032;2023-11-21T00:55:33;44.60;;;29.97;;
79122;SDS011;68526;44.600;26.032;2023-11-21T00:55:49;43.58;;;29.40;;
79122;SDS011;68526;44.600;26.032;2023-11-21T00:56:07;44.17;;;29.45;;
79122;SDS011;68526;44.600;26.032;2023-11-21T00:56:24;45.30;;;29.30;;
79122;SDS011;68526;44.600;26.032;2023-11-21T00:56:40;45.50;;;29.97;;
79122;SDS011;68526;44.600;26.032;2023-11-21T00:56:56;46.83;;;30.52;;
79122;SDS011;68526;44.600;26.032;2023-11-21T00:57:12;46.95;;;30.80;;
79122;SDS011;68526;44.600;26.032;2023-11-21T00:57:28;46.20;;;30.88;;
79122;SDS011;68526;44.600;26.032;2023-11-21T00:57:44;46.17;;;30.50;;
79122;SDS011;68526;44.600;26.032;2023-11-21T00:58:01;43.90;;;29.35;;
79122;SDS011;68526;44.600;26.032;2023-11-21T00:58:19;41.00;;;27.98;;
79122;SDS011;68526;44.600;26.032;2023-11-21T00:58:35;44.72;;;29.60;;
79122;SDS011;68526;44.600;26.032;2023-11-21T00:58:50;47.27;;;31.00;;
79122;SDS011;68526;44.600;26.032;2023-11-21T00:59:07;46.97;;;31.10;;
79122;SDS011;68526;44.600;26.032;2023-11-21T00:59:23;48.15;;;31.02;;
79122;SDS011;68526;44.600;26.032;2023-11-21T00:59:39;48.30;;;30.30;;
79122;SDS011;68526;44.600;26.032;2023-11-21T00:59:55;47.25;;;30.55;;
79122;SDS011;68526;44.600;26.032;2023-11-21T01:00:12;46.25;;;31.20;;
79122;SDS011;68526;44.600;26.032;2023-11-21T01:00:32;44.22;;;30.63;;
79122;SDS011;68526;44.600;26.032;2023-11-21T01:00:49;42.97;;;29.45;;
79122;SDS011;68526;44.600;26.032;2023-11-21T01:01:05;44.65;;;29.73;;
79122;SDS011;68526;44.600;26.032;2023-11-21T01:01:21;47.10;;;30.70;;
79122;SDS011;68526;44.600;26.032;2023-11-21T01:01:37;48.20;;;30.73;;
79122;SDS011;68526;44.600;26.032;2023-11-21T01:01:53;49.73;;;30.73;;
79122;SDS011;68526;44.600;26.032;2023-11-21T01:02:10;48.17;;;30.85;;
79122;SDS011;68526;44.600;26.032;2023-11-21T01:02:26;45.17;;;29.92;;
79122;SDS011;68526;44.600;26.032;2023-11-21T01:02:42;45.78;;;30.52;;
79122;SDS011;68526;44.600;26.032;2023-11-21T01:02:58;46.95;;;31.67;;
79122;SDS011;68526;44.600;26.032;2023-11-21T01:03:14;46.90;;;31.10;;
79122;SDS011;68526;44.600;26.032;2023-11-21T01:03:30;46.97;;;31.10;;
79122;SDS011;68526;44.600;26.032;2023-11-21T01:03:46;47.28;;;31.48;;
79122;SDS011;68526;44.600;26.032;2023-11-21T01:04:03;47.38;;;31.63;;
79122;SDS011;68526;44.600;26.032;2023-11-21T01:04:20;48.05;;;32.60;;
79122;SDS011;68526;44.600;26.032;2023-11-21T01:04:36;49.92;;;32.33;;
79122;SDS011;68526;44.600;26.032;2023-11-21T01:04:52;49.20;;;30.83;;
79122;SDS011;68526;44.600;26.032;2023-11-21T01:05:08;47.80;;;30.95;;
79122;SDS011;68526;44.600;26.032;2023-11-21T01:05:25;49.67;;;31.42;;
79122;SDS011;68526;44.600;26.032;2023-11-21T01:05:43;49.30;;;31.73;;
79122;SDS011;68526;44.600;26.032;2023-11-21T01:05:58;46.55;;;31.42;;
79122;SDS011;68526;44.600;26.032;2023-11-21T01:06:14;44.67;;;30.40;;
79122;SDS011;68526;44.600;26.032;2023-11-21T01:06:30;44.22;;;30.38;;
79122;SDS011;68526;44.600;26.032;2023-11-21T01:06:46;43.83;;;29.83;;
79122;SDS011;68526;44.600;26.032;2023-11-21T01:07:02;43.60;;;29.70;;
79122;SDS011;68526;44.600;26.032;2023-11-21T01:07:18;42.90;;;29.80;;
79122;SDS011;68526;44.600;26.032;2023-11-21T01:07:35;47.92;;;31.92;;
79122;SDS011;68526;44.600;26.032;2023-11-21T01:07:52;48.13;;;32.13;;
79122;SDS011;68526;44.600;26.032;2023-11-21T01:08:08;46.47;;;31.77;;
79122;SDS011;68526;44.600;26.032;2023-11-21T01:08:24;47.90;;;31.83;;
79122;SDS011;68526;44.600;26.032;2023-11-21T01:08:40;46.13;;;30.85;;
79122;SDS011;68526;44.600;26.032;2023-11-21T01:08:56;46.25;;;30.77;;
79122;SDS011;68526;44.600;26.032;2023-11-21T01:09:12;47.03;;;31.20;;
79122;SDS011;68526;44.600;26.032;2023-11-21T01:09:28;46.88;;;31.38;;
79122;SDS011;68526;44.600;26.032;2023-11-21T01:09:45;49.70;;;31.25;;
79122;SDS011;68526;44.600;26.032;2023-11-21T01:10:01;48.93;;;31.50;;
79122;SDS011;68526;44.600;26.032;2023-11-21T01:10:17;46.63;;;30.77;;
79122;SDS011;68526;44.600;26.032;2023-11-21T01:10:33;46.45;;;30.27;;
79122;SDS011;68526;44.600;26.032;2023-11-21T01:10:49;46.97;;;29.75;;
79122;SDS011;68526;44.600;26.032;2023-11-21T01:11:05;46.78;;;29.60;;
79122;SDS011;68526;44.600;26.032;2023-11-21T01:11:23;46.47;;;30.30;;
79122;SDS011;68526;44.600;26.032;2023-11-21T01:11:40;45.85;;;30.70;;
79122;SDS011;68526;44.600;26.032;2023-11-21T01:11:56;48.60;;;31.70;;
79122;SDS011;68526;44.600;26.032;2023-11-21T01:12:12;48.05;;;31.00;;
79122;SDS011;68526;44.600;26.032;2023-11-21T01:12:28;45.25;;;30.33;;
79122;SDS011;68526;44.600;26.032;2023-11-21T01:12:44;46.42;;;30.83;;
79122;SDS011;68526;44.600;26.032;2023-11-21T01:13:00;46.47;;;31.90;;
79122;SDS011;68526;44.600;26.032;2023-11-21T01:13:16;47.87;;;31.57;;
79122;SDS011;68526;44.600;26.032;2023-11-21T01:13:33;49.60;;;31.38;;
79122;SDS011;68526;44.600;26.032;2023-11-21T01:13:50;46.15;;;31.30;;
79122;SDS011;68526;44.600;26.032;2023-11-21T01:14:06;45.30;;;30.40;;
79122;SDS011;68526;44.600;26.032;2023-11-21T01:14:23;44.35;;;30.00;;
79122;SDS011;68526;44.600;26.032;2023-11-21T01:14:42;45.53;;;30.52;;
79122;SDS011;68526;44.600;26.032;2023-11-21T01:14:57;44.67;;;29.80;;
79122;SDS011;68526;44.600;26.032;2023-11-21T01:15:15;44.87;;;29.97;;
79122;SDS011;68526;44.600;26.032;2023-11-21T01:15:32;45.88;;;30.65;;
79122;SDS011;68526;44.600;26.032;2023-11-21T01:15:49;45.90;;;31.25;;
79122;SDS011;68526;44.600;26.032;2023-11-21T01:16:05;48.95;;;32.38;;
79122;SDS011;68526;44.600;26.032;2023-11-21T01:16:23;48.08;;;31.95;;
79122;SDS011;68526;44.600;26.032;2023-11-21T01:16:39;47.30;;;31.35;;
79122;SDS011;68526;44.600;26.032;2023-11-21T01:16:55;48.60;;;31.75;;
79122;SDS011;68526;44.600;26.032;2023-11-21T01:17:11;47.53;;;31.10;;
79122;SDS011;68526;44.600;26.032;2023-11-21T01:17:28;45.60;;;30.77;;
79122;SDS011;68526;44.600;26.032;2023-11-21T01:17:44;45.28;;;30.52;;
79122;SDS011;68526;44.600;26.032;2023-11-21T01:18:00;45.63;;;30.42;;
79122;SDS011;68526;44.600;26.032;2023-11-21T01:18:16;45.70;;;30.38;;
79122;SDS011;68526;44.600;26.032;2023-11-21T01:18:31;45.23;;;31.00;;
79122;SDS011;68526;44.600;26.032;2023-11-21T01:18:47;46.38;;;31.55;;
79122;SDS011;68526;44.600;26.032;2023-11-21T01:19:03;44.90;;;31.13;;
79122;SDS011;68526;44.600;26.032;2023-11-21T01:19:19;45.90;;;31.98;;
79122;SDS011;68526;44.600;26.032;2023-11-21T01:19:35;48.88;;;32.28;;
79122;SDS011;68526;44.600;26.032;2023-11-21T01:19:52;45.65;;;30.67;;
79122;SDS011;68526;44.600;26.032;2023-11-21T01:20:08;44.60;;;30.93;;
79122;SDS011;68526;44.600;26.032;2023-11-21T01:20:27;46.70;;;31.42;;
79122;SDS011;68526;44.600;26.032;2023-11-21T01:20:43;47.10;;;31.85;;
79122;SDS011;68526;44.600;26.032;2023-11-21T01:21:02;48.83;;;32.13;;
79122;SDS011;68526;44.600;26.032;2023-11-21T01:21:18;48.03;;;31.50;;
79122;SDS011;68526;44.600;26.032;2023-11-21T01:21:34;48.03;;;31.42;;
79122;SDS011;68526;44.600;26.032;2023-11-21T01:21:50;47.70;;;31.50;;
79122;SDS011;68526;44.600;26.032;2023-11-21T01:22:08;48.72;;;31.58;;
79122;SDS011;68526;44.600;26.032;2023-11-21T01:22:24;49.95;;;31.70;;
79122;SDS011;68526;44.600;26.032;2023-11-21T01:22:41;48.90;;;31.88;;
79122;SDS011;68526;44.600;26.032;2023-11-21T01:22:57;45.20;;;30.95;;
79122;SDS011;68526;44.600;26.032;2023-11-21T01:23:13;44.22;;;29.88;;
79122;SDS011;68526;44.600;26.032;2023-11-21T01:23:29;46.83;;;30.85;;
79122;SDS011;68526;44.600;26.032;2023-11-21T01:23:45;49.60;;;32.60;;
79122;SDS011;68526;44.600;26.032;2023-11-21T01:24:02;50.88;;;33.03;;
79122;SDS011;68526;44.600;26.032;2023-11-21T01:24:20;50.53;;;33.15;;
79122;SDS011;68526;44.600;26.032;2023-11-21T01:24:36;48.40;;;32.20;;
79122;SDS011;68526;44.600;26.032;2023-11-21T01:24:53;49.00;;;32.55;;
79122;SDS011;68526;44.600;26.032;2023-11-21T01:25:09;49.60;;;32.70;;
79122;SDS011;68526;44.600;26.032;2023-11-21T01:25:26;49.20;;;32.95;;
79122;SDS011;68526;44.600;26.032;2023-11-21T01:25:41;50.03;;;32.50;;
79122;SDS011;68526;44.600;26.032;2023-11-21T01:25:57;51.75;;;32.58;;
79122;SDS011;68526;44.600;26.032;2023-11-21T01:26:13;50.50;;;32.77;;
79122;SDS011;68526;44.600;26.032;2023-11-21T01:26:29;50.05;;;32.58;;
79122;SDS011;68526;44.600;26.032;2023-11-21T01:26:45;50.88;;;31.85;;
79122;SDS011;68526;44.600;26.032;2023-11-21T01:27:01;48.30;;;30.87;;
79122;SDS011;68526;44.600;26.032;2023-11-21T01:27:19;48.95;;;32.65;;
79122;SDS011;68526;44.600;26.032;2023-11-21T01:27:35;48.03;;;32.05;;
79122;SDS011;68526;44.600;26.032;2023-11-21T01:27:52;50.63;;;32.28;;
79122;SDS011;68526;44.600;26.032;2023-11-21T01:28:07;50.13;;;32.23;;
79122;SDS011;68526;44.600;26.032;2023-11-21T01:28:23;48.65;;;31.77;;
79122;SDS011;68526;44.600;26.032;2023-11-21T01:28:39;50.92;;;32.55;;
79122;SDS011;68526;44.600;26.032;2023-11-21T01:28:55;49.00;;;32.55;;
79122;SDS011;68526;44.600;26.032;2023-11-21T01:29:11;47.77;;;32.07;;
79122;SDS011;68526;44.600;26.032;2023-11-21T01:29:28;48.55;;;31.67;;
79122;SDS011;68526;44.600;26.032;2023-11-21T01:29:43;48.58;;;31.92;;
79122;SDS011;68526;44.600;26.032;2023-11-21T01:29:59;48.25;;;32.35;;
79122;SDS011;68526;44.600;26.032;2023-11-21T01:30:15;47.95;;;32.97;;
79122;SDS011;68526;44.600;26.032;2023-11-21T01:30:31;48.17;;;32.70;;
79122;SDS011;68526;44.600;26.032;2023-11-21T01:30:50;49.05;;;31.98;;
79122;SDS011;68526;44.600;26.032;2023-11-21T01:31:06;48.95;;;32.00;;
79122;SDS011;68526;44.600;26.032;2023-11-21T01:31:22;47.63;;;31.50;;
79122;SDS011;68526;44.600;26.032;2023-11-21T01:31:38;46.63;;;31.10;;
79122;SDS011;68526;44.600;26.032;2023-11-21T01:31:53;46.03;;;30.73;;
79122;SDS011;68526;44.600;26.032;2023-11-21T01:32:09;48.00;;;31.60;;
79122;SDS011;68526;44.600;26.032;2023-11-21T01:32:25;50.03;;;31.63;;
79122;SDS011;68526;44.600;26.032;2023-11-21T01:32:43;49.55;;;30.92;;
79122;SDS011;68526;44.600;26.032;2023-11-21T01:32:59;50.75;;;32.03;;
79122;SDS011;68526;44.600;26.032;2023-11-21T01:33:15;49.40;;;32.30;;
79122;SDS011;68526;44.600;26.032;2023-11-21T01:33:31;47.20;;;32.00;;
79122;SDS011;68526;44.600;26.032;2023-11-21T01:33:47;48.40;;;31.17;;
79122;SDS011;68526;44.600;26.032;2023-11-21T01:34:03;48.90;;;30.88;;
79122;SDS011;68526;44.600;26.032;2023-11-21T01:34:20;48.72;;;32.08;;